Time;durP1;ratioP1;P1;durP2;ratioP2;P2;SDS_P1;SDS_P2;PMS_P1;PMS_P2;Temp;Humidity;BMP_temperature;BMP_pressure;BME280_temperature;BME280_humidity;BME280_pressure;Samples;Min_cycle;Max_cycle;Signal;HPM_P1;HPM_P2
2023/03/06 00:00:48;;;;;;;25.13;9.45;;;5.40;99.90;;;;;;5018619;28;20018;-67
2023/03/06 00:03:13;;;;;;;21.15;9.85;;;5.40;99.90;;;;;;5019299;28;20029;-67
2023/03/06 00:05:39;;;;;;;25.42;11.57;;;5.40;99.90;;;;;;5018213;28;20017;-67
2023/03/06 00:08:05;;;;;;;28.10;9.88;;;5.40;99.90;;;;;;5018465;28;20113;-67
2023/03/06 00:10:32;;;;;;;28.40;10.63;;;5.30;99.90;;;;;;5017936;28;20022;-67
2023/03/06 00:13:04;;;;;;;25.48;11.05;;;5.20;99.90;;;;;;5018143;28;20107;-67
2023/03/06 00:15:30;;;;;;;25.20;11.20;;;5.10;99.90;;;;;;5018016;28;20060;-67
2023/03/06 00:17:56;;;;;;;26.65;10.25;;;5.20;99.90;;;;;;5018572;28;20033;-67
2023/03/06 00:20:23;;;;;;;21.48;10.38;;;5.20;99.90;;;;;;5019113;28;20029;-67
2023/03/06 00:22:49;;;;;;;25.00;11.27;;;5.20;99.90;;;;;;5017935;28;20029;-67
2023/03/06 00:25:17;;;;;;;23.75;10.82;;;5.20;99.90;;;;;;5017979;28;20029;-67
2023/03/06 00:27:43;;;;;;;24.02;11.07;;;5.20;99.90;;;;;;5017843;28;20053;-66
2023/03/06 00:30:16;;;;;;;25.15;10.50;;;5.20;99.90;;;;;;5017645;28;20024;-67
2023/03/06 00:32:43;;;;;;;25.02;10.75;;;5.20;99.90;;;;;;5001578;28;20030;-67
2023/03/06 00:35:10;;;;;;;28.55;11.80;;;5.30;99.90;;;;;;5017869;28;20064;-67
2023/03/06 00:37:35;;;;;;;25.40;10.95;;;5.30;99.90;;;;;;5017487;28;20117;-67
2023/03/06 00:40:04;;;;;;;33.13;12.63;;;5.30;99.90;;;;;;5016641;28;20109;-67
2023/03/06 00:42:29;;;;;;;25.65;11.68;;;5.30;99.90;;;;;;5017447;28;20079;-67
2023/03/06 00:44:56;;;;;;;27.13;12.10;;;5.30;99.90;;;;;;5018321;28;20018;-67
2023/03/06 00:47:21;;;;;;;21.20;10.77;;;5.30;99.90;;;;;;5017554;28;20038;-67
2023/03/06 00:49:48;;;;;;;28.42;11.00;;;5.20;99.90;;;;;;5017370;28;20025;-67
2023/03/06 00:52:14;;;;;;;23.88;10.57;;;5.10;99.90;;;;;;5018237;28;20022;-67
2023/03/06 00:54:40;;;;;;;26.63;11.35;;;5.10;99.90;;;;;;5017163;28;20030;-67
2023/03/06 00:57:06;;;;;;;22.63;10.02;;;5.00;99.90;;;;;;5017738;28;20033;-67
2023/03/06 00:59:31;;;;;;;25.73;11.95;;;5.10;99.90;;;;;;5017132;28;20080;-67
2023/03/06 01:01:57;;;;;;;27.02;11.15;;;5.00;99.90;;;;;;5017324;28;20037;-67
2023/03/06 01:04:23;;;;;;;25.00;10.95;;;5.00;99.90;;;;;;5018547;28;20033;-67
2023/03/06 01:06:49;;;;;;;24.58;11.40;;;4.90;99.90;;;;;;5017063;28;20014;-67
2023/03/06 01:09:14;;;;;;;23.60;10.15;;;4.90;99.90;;;;;;5017231;28;20022;-67
2023/03/06 01:11:40;;;;;;;27.70;11.63;;;4.80;99.90;;;;;;5016863;28;20022;-67
2023/03/06 01:14:06;;;;;;;31.52;12.27;;;4.80;99.90;;;;;;5017215;28;20045;-67
2023/03/06 01:16:31;;;;;;;30.63;12.85;;;4.80;99.90;;;;;;5016911;28;20033;-67
2023/03/06 01:18:57;;;;;;;27.52;12.10;;;4.80;99.90;;;;;;5016794;28;20029;-67
2023/03/06 01:21:23;;;;;;;33.75;11.88;;;4.70;99.90;;;;;;5001183;28;20025;-67
2023/03/06 01:23:48;;;;;;;31.80;13.15;;;4.70;99.90;;;;;;5016787;28;20036;-67
2023/03/06 01:26:14;;;;;;;29.85;11.75;;;4.80;99.90;;;;;;5016647;28;20032;-67
2023/03/06 01:28:40;;;;;;;33.47;13.23;;;4.70;99.90;;;;;;5017564;28;20036;-67
2023/03/06 01:31:06;;;;;;;31.52;13.40;;;4.70;99.90;;;;;;5016657;28;20069;-67
2023/03/06 01:33:33;;;;;;;30.42;12.15;;;4.50;99.90;;;;;;5017907;28;20054;-67
2023/03/06 01:35:58;;;;;;;36.63;13.98;;;4.40;99.90;;;;;;5016630;28;20037;-67
2023/03/06 01:38:24;;;;;;;34.13;15.10;;;4.40;99.90;;;;;;5017376;28;20025;-67
2023/03/06 01:40:49;;;;;;;34.90;14.10;;;4.30;99.90;;;;;;5017249;28;20026;-67
2023/03/06 01:43:27;;;;;;;26.58;10.93;;;4.20;99.90;;;;;;5016525;28;20117;-67
2023/03/06 01:46:27;;;;;;;30.95;13.23;;;4.20;99.90;;;;;;5000688;28;20014;-67
2023/03/06 01:49:00;;;;;;;23.88;10.45;;;4.40;99.90;;;;;;5000165;28;20034;-67
2023/03/06 01:51:29;;;;;;;29.35;11.15;;;4.60;99.90;;;;;;4999924;28;20089;-67
2023/03/06 01:53:59;;;;;;;29.08;12.27;;;4.60;99.90;;;;;;5016286;28;20025;-67
2023/03/06 01:56:25;;;;;;;27.45;11.43;;;4.60;99.90;;;;;;5016497;28;20032;-67
2023/03/06 01:58:51;;;;;;;33.10;12.32;;;4.60;99.90;;;;;;5016522;28;20026;-67
2023/03/06 02:01:18;;;;;;;27.98;12.15;;;4.60;99.90;;;;;;5017631;28;20053;-67
2023/03/06 02:03:46;;;;;;;37.25;14.23;;;4.60;99.90;;;;;;5017041;28;20084;-67
2023/03/06 02:06:12;;;;;;;31.90;12.82;;;4.60;99.90;;;;;;5017051;28;20057;-67
2023/03/06 02:08:38;;;;;;;30.73;12.02;;;4.60;99.90;;;;;;5016383;28;20022;-67
2023/03/06 02:11:07;;;;;;;26.20;11.95;;;4.60;99.90;;;;;;5017145;28;20033;-67
2023/03/06 02:13:34;;;;;;;29.60;12.55;;;4.70;99.90;;;;;;5017098;28;20029;-67
2023/03/06 02:16:00;;;;;;;25.20;12.60;;;4.70;99.90;;;;;;5016151;28;20029;-67
2023/03/06 02:18:27;;;;;;;30.38;12.27;;;4.60;99.90;;;;;;5016093;28;20037;-67
2023/03/06 02:20:59;;;;;;;31.38;12.55;;;4.70;99.90;;;;;;5016987;28;20033;-67
2023/03/06 02:23:43;;;;;;;27.23;11.60;;;4.70;99.90;;;;;;5016790;28;20025;-67
2023/03/06 02:26:10;;;;;;;22.25;9.88;;;4.70;99.90;;;;;;5015932;28;20117;-67
2023/03/06 02:28:35;;;;;;;22.42;10.02;;;4.80;99.90;;;;;;5016135;28;20117;-67
2023/03/06 02:31:01;;;;;;;21.20;9.65;;;4.80;99.90;;;;;;5016024;28;20057;-67
2023/03/06 02:33:28;;;;;;;25.27;10.43;;;4.70;99.90;;;;;;5016061;28;20041;-67
2023/03/06 02:36:02;;;;;;;27.98;10.57;;;4.70;99.90;;;;;;5015939;28;20032;-67
2023/03/06 02:38:36;;;;;;;26.15;10.27;;;4.60;99.90;;;;;;5015952;28;20052;-67
2023/03/06 02:41:05;;;;;;;22.63;10.35;;;4.60;99.90;;;;;;5016067;28;20030;-67
2023/03/06 02:43:35;;;;;;;25.88;10.13;;;4.60;99.90;;;;;;5015929;28;20022;-67
2023/03/06 02:46:01;;;;;;;20.65;9.38;;;4.60;99.90;;;;;;5015642;28;20109;-67
2023/03/06 02:48:26;;;;;;;20.52;9.50;;;4.70;99.90;;;;;;5015934;28;20045;-67
2023/03/06 02:50:52;;;;;;;27.95;11.00;;;4.70;99.90;;;;;;5016046;28;20034;-67
2023/03/06 02:53:19;;;;;;;24.33;10.13;;;4.70;99.90;;;;;;5016992;28;20065;-67
2023/03/06 02:55:45;;;;;;;23.40;9.75;;;4.70;99.90;;;;;;5016672;28;20026;-67
2023/03/06 02:58:11;;;;;;;22.42;10.23;;;4.80;99.90;;;;;;5015886;28;20037;-67
2023/03/06 03:00:37;;;;;;;23.50;10.38;;;4.70;99.90;;;;;;5016951;28;20022;-67
2023/03/06 03:03:03;;;;;;;23.13;9.55;;;4.70;99.90;;;;;;5017377;28;20026;-67
2023/03/06 03:05:29;;;;;;;22.20;10.60;;;4.70;99.90;;;;;;5019396;28;20022;-67
2023/03/06 03:07:54;;;;;;;23.27;10.55;;;4.70;99.90;;;;;;5019075;28;20028;-67
2023/03/06 03:10:20;;;;;;;26.48;10.63;;;4.70;99.90;;;;;;5019458;28;20030;-67
2023/03/06 03:12:45;;;;;;;24.52;10.82;;;4.70;99.90;;;;;;5019512;28;20030;-67
2023/03/06 03:15:11;;;;;;;18.83;9.50;;;4.80;99.90;;;;;;5019045;28;20026;-67
2023/03/06 03:17:39;;;;;;;25.05;10.25;;;4.70;99.90;;;;;;5019384;28;20052;-67
2023/03/06 03:20:08;;;;;;;21.40;10.00;;;4.60;99.90;;;;;;5019263;28;20032;-67
2023/03/06 03:22:33;;;;;;;22.63;10.45;;;4.50;99.90;;;;;;5018755;28;20025;-67
2023/03/06 03:24:59;;;;;;;25.73;9.90;;;4.50;99.90;;;;;;5019217;28;20022;-67
2023/03/06 03:27:24;;;;;;;22.00;10.15;;;4.50;99.90;;;;;;5019699;28;20022;-67
2023/03/06 03:29:50;;;;;;;23.98;10.13;;;4.40;99.90;;;;;;5018891;28;20030;-67
2023/03/06 03:32:16;;;;;;;20.30;9.60;;;4.30;99.90;;;;;;5020062;28;20029;-67
2023/03/06 03:34:41;;;;;;;22.90;9.70;;;4.30;99.90;;;;;;5019070;28;20058;-67
2023/03/06 03:37:08;;;;;;;24.15;9.73;;;4.40;99.90;;;;;;5019046;28;20073;-67
2023/03/06 03:39:33;;;;;;;27.60;10.57;;;4.40;99.90;;;;;;5019782;28;20129;-67
2023/03/06 03:41:59;;;;;;;20.92;9.27;;;4.30;99.90;;;;;;5018637;28;20057;-67
2023/03/06 03:44:24;;;;;;;21.48;9.15;;;4.40;99.90;;;;;;5018601;28;20033;-67
2023/03/06 03:46:50;;;;;;;20.58;9.02;;;4.40;99.90;;;;;;5018431;28;20084;-67
2023/03/06 03:49:16;;;;;;;23.23;9.65;;;4.40;99.90;;;;;;5018504;28;20018;-67
2023/03/06 03:51:41;;;;;;;21.73;9.43;;;4.40;99.90;;;;;;5019277;28;20048;-67
2023/03/06 03:54:07;;;;;;;24.30;10.45;;;4.40;99.90;;;;;;5019241;28;20063;-66
2023/03/06 03:56:33;;;;;;;21.77;8.73;;;4.30;99.90;;;;;;5018330;28;20032;-67
2023/03/06 03:58:58;;;;;;;19.20;8.15;;;4.30;99.90;;;;;;5019403;28;20113;-67
2023/03/06 04:01:24;;;;;;;23.95;10.10;;;4.30;99.90;;;;;;5019388;28;20065;-67
2023/03/06 04:03:50;;;;;;;17.33;8.23;;;4.30;99.90;;;;;;5018089;28;20072;-67
2023/03/06 04:06:16;;;;;;;22.98;9.57;;;4.40;99.90;;;;;;5019123;28;20026;-66
2023/03/06 04:08:42;;;;;;;19.77;8.75;;;4.50;99.90;;;;;;5018279;28;20018;-67
2023/03/06 04:11:08;;;;;;;19.55;9.02;;;4.50;99.90;;;;;;5018314;28;20097;-67
2023/03/06 04:13:33;;;;;;;23.58;9.77;;;4.50;99.90;;;;;;5018015;28;20079;-67
2023/03/06 04:15:59;;;;;;;22.23;9.18;;;4.60;99.90;;;;;;5018778;28;20053;-67
2023/03/06 04:18:25;;;;;;;19.15;9.13;;;4.50;99.90;;;;;;5018084;28;20029;-67
2023/03/06 04:20:51;;;;;;;25.08;10.00;;;4.50;99.90;;;;;;5017834;28;20092;-67
2023/03/06 04:23:17;;;;;;;21.67;9.65;;;4.50;99.90;;;;;;5017931;28;20026;-67
2023/03/06 04:25:43;;;;;;;22.13;9.35;;;4.50;99.90;;;;;;5018071;28;20071;-67
2023/03/06 04:28:09;;;;;;;20.85;8.82;;;4.50;99.90;;;;;;5017819;28;20022;-67
2023/03/06 04:30:35;;;;;;;24.13;10.00;;;4.50;99.90;;;;;;5017589;28;20033;-67
2023/03/06 04:33:00;;;;;;;21.20;8.45;;;4.40;99.90;;;;;;5017725;28;20026;-67
2023/03/06 04:35:26;;;;;;;26.33;9.75;;;4.40;99.90;;;;;;5017736;28;20030;-67
2023/03/06 04:37:52;;;;;;;24.85;10.88;;;4.20;99.90;;;;;;5017451;28;20048;-67
2023/03/06 04:40:20;;;;;;;22.08;9.18;;;4.30;99.90;;;;;;5018472;28;20030;-67
2023/03/06 04:42:46;;;;;;;23.98;10.25;;;4.20;99.90;;;;;;5017704;28;20022;-67
2023/03/06 04:45:12;;;;;;;25.95;10.05;;;4.30;99.90;;;;;;5017880;28;20025;-67
2023/03/06 04:47:38;;;;;;;22.58;9.82;;;4.30;99.90;;;;;;5017377;28;20033;-67
2023/03/06 04:50:05;;;;;;;22.70;9.70;;;4.20;99.90;;;;;;5018135;28;20164;-67
2023/03/06 04:52:30;;;;;;;21.77;8.90;;;4.20;99.90;;;;;;5000865;28;20025;-67
2023/03/06 04:54:56;;;;;;;20.73;9.50;;;4.20;99.90;;;;;;5017971;28;20018;-67
2023/03/06 04:57:22;;;;;;;20.65;9.15;;;4.10;99.90;;;;;;5017370;28;20053;-67
2023/03/06 04:59:49;;;;;;;22.02;9.32;;;4.10;99.90;;;;;;5017494;28;20030;-67
2023/03/06 05:02:16;;;;;;;24.65;10.18;;;4.10;99.90;;;;;;5017481;28;20025;-67
2023/03/06 05:04:41;;;;;;;21.95;9.00;;;4.10;99.90;;;;;;5017536;28;20047;-67
2023/03/06 05:07:07;;;;;;;22.40;9.15;;;4.20;99.90;;;;;;5017932;28;20095;-67
2023/03/06 05:09:34;;;;;;;22.25;9.13;;;4.10;99.90;;;;;;5017260;28;20117;-67
2023/03/06 05:11:59;;;;;;;20.60;8.38;;;4.10;99.90;;;;;;5017239;28;20018;-67
2023/03/06 05:14:27;;;;;;;24.95;9.63;;;4.10;99.90;;;;;;5016939;28;20076;-67
2023/03/06 05:16:53;;;;;;;20.92;8.90;;;4.10;99.90;;;;;;5016856;28;20053;-67
2023/03/06 05:19:18;;;;;;;20.77;9.48;;;4.10;99.90;;;;;;5016945;28;20060;-67
2023/03/06 05:21:44;;;;;;;22.33;9.00;;;4.10;99.90;;;;;;5017652;28;20080;-67
2023/03/06 05:24:09;;;;;;;19.30;9.60;;;4.20;99.90;;;;;;5016766;28;20050;-67
2023/03/06 05:26:35;;;;;;;21.38;8.50;;;4.10;99.90;;;;;;5017697;28;20061;-67
2023/03/06 05:29:00;;;;;;;21.50;9.32;;;4.20;99.90;;;;;;5016833;28;20061;-67
2023/03/06 05:31:26;;;;;;;22.50;9.27;;;4.20;99.90;;;;;;5017511;28;20058;-67
2023/03/06 05:33:51;;;;;;;20.92;9.23;;;4.20;99.90;;;;;;5016725;28;20026;-67
2023/03/06 05:36:17;;;;;;;23.40;9.48;;;4.20;99.90;;;;;;5016555;28;20026;-67
2023/03/06 05:38:42;;;;;;;18.30;8.30;;;4.20;99.90;;;;;;5016861;28;20029;-67
2023/03/06 05:41:11;;;;;;;18.77;8.32;;;4.20;99.90;;;;;;5017252;28;20029;-67
2023/03/06 05:43:37;;;;;;;22.35;9.00;;;4.10;99.90;;;;;;5017310;28;20018;-67
2023/03/06 05:48:29;;;;;;;20.30;8.57;;;4.10;99.90;;;;;;5097584;22;20040;-69
2023/03/06 05:50:59;;;;;;;23.15;9.18;;;4.10;99.90;;;;;;5059753;28;20070;-69
2023/03/06 05:53:25;;;;;;;21.83;8.18;;;4.00;99.90;;;;;;5059461;28;20020;-69
2023/03/06 05:56:03;;;;;;;20.33;8.73;;;4.00;99.90;;;;;;5059775;28;20062;-69
2023/03/06 05:58:30;;;;;;;18.02;8.50;;;4.10;99.90;;;;;;5059993;28;20025;-69
2023/03/06 06:00:56;;;;;;;20.10;9.35;;;4.10;99.90;;;;;;5077136;28;20024;-69
2023/03/06 06:03:22;;;;;;;18.67;8.07;;;4.10;99.90;;;;;;5059460;28;20054;-69
2023/03/06 06:05:48;;;;;;;16.95;7.35;;;4.20;99.90;;;;;;5076902;28;20020;-69
2023/03/06 06:08:14;;;;;;;18.10;8.98;;;4.20;99.90;;;;;;5059730;28;20111;-72
2023/03/06 06:10:39;;;;;;;23.08;7.90;;;4.10;99.90;;;;;;5059260;28;20028;-71
2023/03/06 06:13:05;;;;;;;19.73;8.85;;;4.20;99.90;;;;;;5059289;28;20024;-71
2023/03/06 06:15:30;;;;;;;21.77;8.25;;;4.20;99.90;;;;;;5059075;28;20023;-71
2023/03/06 06:17:56;;;;;;;19.27;8.65;;;4.20;99.90;;;;;;5059120;28;20021;-71
2023/03/06 06:20:23;;;;;;;21.95;8.35;;;4.10;99.90;;;;;;5059995;28;20119;-71
2023/03/06 06:22:48;;;;;;;20.15;8.98;;;4.00;99.90;;;;;;5059946;28;20046;-71
2023/03/06 06:25:14;;;;;;;22.30;10.07;;;4.00;99.90;;;;;;5059258;28;20092;-71
2023/03/06 06:27:40;;;;;;;21.38;8.40;;;4.00;99.90;;;;;;5058964;28;20074;-71
2023/03/06 06:30:07;;;;;;;18.70;7.70;;;4.10;99.90;;;;;;5059453;28;20028;-71
2023/03/06 06:32:33;;;;;;;21.50;8.77;;;4.00;99.90;;;;;;5059094;28;20028;-71
2023/03/06 06:34:59;;;;;;;19.00;8.48;;;4.00;99.90;;;;;;5059010;28;20024;-71
2023/03/06 06:37:24;;;;;;;24.10;9.50;;;3.90;99.90;;;;;;5058927;28;20056;-71
2023/03/06 06:39:51;;;;;;;16.50;7.78;;;3.90;99.90;;;;;;5063507;28;20039;-71
2023/03/06 06:42:16;;;;;;;19.65;8.88;;;3.90;99.90;;;;;;5062804;28;20017;-71
2023/03/06 06:44:42;;;;;;;20.42;8.70;;;3.80;99.90;;;;;;5063029;28;20024;-71
2023/03/06 06:47:07;;;;;;;22.70;8.55;;;3.70;99.90;;;;;;5062735;28;20033;-72
2023/03/06 06:49:33;;;;;;;20.90;9.18;;;3.80;99.90;;;;;;5063501;28;20070;-71
2023/03/06 06:51:59;;;;;;;21.95;8.90;;;3.90;99.90;;;;;;5080151;28;20021;-71
2023/03/06 06:54:25;;;;;;;18.83;8.40;;;4.00;99.90;;;;;;5080065;28;20056;-72
2023/03/06 06:56:51;;;;;;;23.75;9.43;;;4.10;99.90;;;;;;5062616;28;20105;-72
2023/03/06 06:59:17;;;;;;;19.00;8.15;;;4.10;99.90;;;;;;5062605;28;20028;-72
2023/03/06 07:01:42;;;;;;;20.83;8.50;;;4.00;99.90;;;;;;5062331;28;20024;-71
2023/03/06 07:04:12;;;;;;;20.48;8.45;;;4.00;99.90;;;;;;5062356;28;20024;-72
2023/03/06 07:06:38;;;;;;;22.42;8.88;;;4.00;99.90;;;;;;5062321;28;20025;-71
2023/03/06 07:09:04;;;;;;;22.88;9.75;;;4.00;99.90;;;;;;5062630;28;20028;-72
2023/03/06 07:11:29;;;;;;;29.67;10.55;;;3.90;99.90;;;;;;5062544;28;20024;-71
2023/03/06 07:13:55;;;;;;;39.50;13.13;;;3.80;99.90;;;;;;5062612;28;20024;-72
2023/03/06 07:16:21;;;;;;;18.30;8.68;;;3.90;99.90;;;;;;5062580;28;20029;-71
2023/03/06 07:18:47;;;;;;;23.77;9.07;;;3.80;99.90;;;;;;5062916;28;20031;-74
2023/03/06 07:21:12;;;;;;;30.38;12.18;;;3.70;99.90;;;;;;5063166;28;20027;-75
2023/03/06 07:23:38;;;;;;;23.92;9.65;;;3.50;99.90;;;;;;5079672;28;20035;-69
2023/03/06 07:26:04;;;;;;;23.80;9.50;;;3.60;99.90;;;;;;5062800;28;20139;-68
2023/03/06 07:28:30;;;;;;;25.92;10.77;;;3.70;99.90;;;;;;5061971;28;20020;-69
2023/03/06 07:30:55;;;;;;;20.52;8.48;;;3.90;99.90;;;;;;5061751;28;20023;-68
2023/03/06 07:33:21;;;;;;;19.38;8.30;;;4.00;99.90;;;;;;5061711;28;20056;-68
2023/03/06 07:35:46;;;;;;;18.25;8.90;;;4.00;99.90;;;;;;5061891;28;20060;-69
2023/03/06 07:38:13;;;;;;;19.88;8.40;;;4.00;99.90;;;;;;5061748;28;20025;-69
2023/03/06 07:40:39;;;;;;;23.10;10.07;;;3.80;99.90;;;;;;5079600;28;20077;-69
2023/03/06 07:43:05;;;;;;;18.58;7.40;;;3.80;99.90;;;;;;5062018;28;20020;-69
2023/03/06 07:45:30;;;;;;;19.25;8.38;;;3.80;99.90;;;;;;5061590;28;20020;-69
2023/03/06 07:47:56;;;;;;;22.88;8.60;;;3.80;99.90;;;;;;5061848;28;20024;-70
2023/03/06 07:50:22;;;;;;;23.88;9.43;;;3.80;99.90;;;;;;5061189;28;20027;-69
2023/03/06 07:52:48;;;;;;;27.63;11.13;;;3.80;99.90;;;;;;5078048;28;20025;-70
2023/03/06 07:55:14;;;;;;;31.27;12.85;;;3.80;99.90;;;;;;5059891;28;20020;-70
2023/03/06 07:57:40;;;;;;;20.33;8.63;;;3.90;99.90;;;;;;5059531;28;20029;-69
2023/03/06 08:00:11;;;;;;;19.40;8.65;;;3.80;99.90;;;;;;5060019;28;20089;-69
2023/03/06 08:02:37;;;;;;;20.88;9.13;;;3.80;99.90;;;;;;5060957;28;20049;-70
2023/03/06 08:05:03;;;;;;;24.38;9.07;;;3.80;99.90;;;;;;5060953;28;20032;-69
2023/03/06 08:07:29;;;;;;;25.77;8.98;;;3.80;99.90;;;;;;5078051;28;20150;-69
2023/03/06 08:09:54;;;;;;;23.70;9.35;;;3.80;99.90;;;;;;5061195;28;20027;-69
2023/03/06 08:12:20;;;;;;;19.92;8.43;;;3.90;99.90;;;;;;5061286;28;20028;-69
2023/03/06 08:14:46;;;;;;;21.27;8.75;;;3.90;99.90;;;;;;5061116;28;20021;-69
2023/03/06 08:17:11;;;;;;;26.30;10.15;;;4.00;99.90;;;;;;5061715;28;20115;-69
2023/03/06 08:19:37;;;;;;;27.05;10.18;;;4.00;99.90;;;;;;5061085;28;20029;-69
2023/03/06 08:22:04;;;;;;;20.63;8.85;;;4.10;99.90;;;;;;5061821;28;20028;-69
2023/03/06 08:24:30;;;;;;;21.77;9.07;;;4.20;99.90;;;;;;5078865;28;20020;-69
2023/03/06 08:26:56;;;;;;;20.35;9.38;;;4.20;99.90;;;;;;5060889;28;20020;-70
2023/03/06 08:29:21;;;;;;;25.33;9.85;;;4.30;99.90;;;;;;5078761;28;20028;-69
2023/03/06 08:31:47;;;;;;;21.73;9.43;;;4.30;99.90;;;;;;5060682;28;20059;-69
2023/03/06 08:34:18;;;;;;;20.73;8.77;;;4.30;99.90;;;;;;5060761;28;20021;-69
2023/03/06 08:36:44;;;;;;;20.45;8.90;;;4.40;99.90;;;;;;5078133;28;20043;-69
2023/03/06 08:39:10;;;;;;;20.77;8.32;;;4.50;99.90;;;;;;5060761;28;20025;-69
2023/03/06 08:41:36;;;;;;;18.20;8.80;;;4.50;99.90;;;;;;5060786;28;20116;-69
2023/03/06 08:44:03;;;;;;;20.65;9.32;;;4.50;99.90;;;;;;5060421;28;20119;-69
2023/03/06 08:46:29;;;;;;;20.13;8.27;;;4.30;99.90;;;;;;5060620;28;20036;-69
2023/03/06 08:48:55;;;;;;;22.15;9.68;;;4.20;99.90;;;;;;5060445;28;20021;-69
2023/03/06 08:51:22;;;;;;;20.67;8.70;;;4.20;99.90;;;;;;5060496;28;20021;-69
2023/03/06 08:53:48;;;;;;;24.85;9.52;;;4.20;99.90;;;;;;5060434;28;20180;-70
2023/03/06 08:56:20;;;;;;;21.17;9.32;;;4.10;99.90;;;;;;5060517;28;20028;-69
2023/03/06 08:58:46;;;;;;;23.23;9.85;;;4.10;99.90;;;;;;5061068;28;20021;-69
2023/03/06 09:01:17;;;;;;;20.83;8.95;;;4.10;99.90;;;;;;5059387;28;20063;-69
2023/03/06 09:03:43;;;;;;;25.48;10.65;;;4.20;99.90;;;;;;5060068;28;20024;-68
2023/03/06 09:06:09;;;;;;;24.50;9.93;;;4.20;99.90;;;;;;5060108;28;20031;-69
2023/03/06 09:08:35;;;;;;;28.17;10.52;;;4.10;99.90;;;;;;5060056;28;20021;-69
2023/03/06 09:11:00;;;;;;;26.17;9.88;;;4.20;99.90;;;;;;5060405;28;20021;-69
2023/03/06 09:13:26;;;;;;;23.33;9.82;;;4.20;99.90;;;;;;5059984;28;20112;-70
2023/03/06 09:15:51;;;;;;;23.67;10.10;;;4.30;99.90;;;;;;5060336;28;20028;-69
2023/03/06 09:18:17;;;;;;;30.35;10.55;;;4.30;99.90;;;;;;5060221;28;20032;-69
2023/03/06 09:20:42;;;;;;;27.27;11.18;;;4.30;99.90;;;;;;5060382;28;20021;-69
2023/03/06 09:23:08;;;;;;;30.55;11.38;;;4.30;99.90;;;;;;5059769;28;20035;-70
2023/03/06 09:25:34;;;;;;;26.45;10.90;;;4.20;99.90;;;;;;5060611;28;20024;-69
2023/03/06 09:27:59;;;;;;;23.65;9.98;;;4.20;99.90;;;;;;5059696;28;20036;-69
2023/03/06 09:30:25;;;;;;;23.88;10.32;;;4.20;99.90;;;;;;5059738;28;20021;-70
2023/03/06 09:32:51;;;;;;;21.77;9.95;;;4.30;99.90;;;;;;5059630;28;20024;-69
2023/03/06 09:35:17;;;;;;;29.63;10.43;;;4.30;99.90;;;;;;5060881;28;20087;-69
2023/03/06 09:37:43;;;;;;;23.08;11.00;;;4.30;99.90;;;;;;5077152;28;20023;-69
2023/03/06 09:40:22;;;;;;;25.95;10.40;;;4.20;99.90;;;;;;5059573;28;20066;-70
2023/03/06 09:42:48;;;;;;;25.38;10.75;;;4.20;99.90;;;;;;5059605;28;20059;-69
2023/03/06 09:45:14;;;;;;;23.35;10.07;;;4.30;99.90;;;;;;5077114;28;20048;-69
2023/03/06 09:47:52;;;;;;;23.85;10.38;;;4.20;99.90;;;;;;5076949;28;20029;-69
2023/03/06 09:50:38;;;;;;;27.75;10.73;;;4.10;99.90;;;;;;5059514;28;20031;-69
2023/03/06 09:53:27;;;;;;;27.70;9.73;;;4.10;99.90;;;;;;5077070;28;20054;-69
2023/03/06 09:56:04;;;;;;;25.50;10.25;;;4.20;99.90;;;;;;5030773;28;20047;-69
2023/03/06 09:58:36;;;;;;;26.73;10.18;;;4.20;99.90;;;;;;5060220;28;20033;-69
2023/03/06 10:01:25;;;;;;;27.77;11.02;;;4.30;99.90;;;;;;5077452;28;20025;-70
2023/03/06 10:04:07;;;;;;;26.63;11.45;;;4.40;99.90;;;;;;5059169;28;20033;-69
2023/03/06 10:06:47;;;;;;;26.95;10.23;;;4.40;99.90;;;;;;5059287;28;20021;-69
2023/03/06 10:09:24;;;;;;;24.30;10.05;;;4.50;99.90;;;;;;5059349;28;20020;-69
2023/03/06 10:12:00;;;;;;;24.05;9.88;;;4.60;99.90;;;;;;5077579;28;20017;-69
2023/03/06 10:14:33;;;;;;;31.45;11.40;;;4.60;99.90;;;;;;5063529;28;20115;-69
2023/03/06 10:17:00;;;;;;;27.92;11.45;;;4.70;99.90;;;;;;5063741;28;20136;-70
2023/03/06 10:19:35;;;;;;;29.83;11.70;;;4.70;99.90;;;;;;5063187;28;20056;-69
2023/03/06 10:22:21;;;;;;;25.02;10.55;;;4.70;99.90;;;;;;5063286;28;20059;-70
2023/03/06 10:25:08;;;;;;;28.75;11.63;;;4.80;99.90;;;;;;5063533;28;20050;-70
2023/03/06 10:27:49;;;;;;;28.50;11.98;;;4.90;99.90;;;;;;5063390;28;20025;-69
2023/03/06 10:30:39;;;;;;;28.08;11.68;;;4.90;99.90;;;;;;5063101;28;20021;-69
2023/03/06 10:33:24;;;;;;;26.05;11.35;;;4.90;99.90;;;;;;5063836;28;20056;-69
2023/03/06 10:35:52;;;;;;;25.77;10.95;;;5.30;99.90;;;;;;5062883;28;20032;-69
2023/03/06 10:38:36;;;;;;;27.17;11.23;;;5.50;99.90;;;;;;5063052;28;20025;-69
2023/03/06 10:41:11;;;;;;;25.63;10.50;;;5.60;99.90;;;;;;5062994;28;20024;-69
2023/03/06 10:44:04;;;;;;;26.10;10.63;;;5.60;99.90;;;;;;5063030;28;20024;-69
2023/03/06 10:46:35;;;;;;;29.70;9.85;;;5.50;99.90;;;;;;5062866;28;20035;-68
2023/03/06 10:49:20;;;;;;;;;;;5.50;99.90;;;;;;5063548;28;20054;-69
2023/03/06 10:52:00;;;;;;;24.10;9.00;;;5.50;99.90;;;;;;5062824;28;19904;-68
2023/03/06 10:54:29;;;;;;;23.60;9.48;;;5.60;99.90;;;;;;5080133;28;20029;-69
2023/03/06 10:56:54;;;;;;;22.70;9.65;;;5.60;99.90;;;;;;5062485;28;20029;-68
2023/03/06 10:59:27;;;;;;;21.02;9.27;;;5.60;99.90;;;;;;5080166;28;20047;-69
2023/03/06 11:02:29;;;;;;;21.10;9.68;;;5.90;99.90;;;;;;5063297;28;20021;-69
2023/03/06 11:04:56;;;;;;;23.38;9.43;;;6.00;99.90;;;;;;5062304;28;20029;-69
2023/03/06 11:07:25;;;;;;;20.30;9.25;;;6.10;99.90;;;;;;5079875;28;20024;-69
2023/03/06 11:09:56;;;;;;;19.08;8.73;;;6.50;99.90;;;;;;5062272;28;20021;-69
2023/03/06 11:12:33;;;;;;;23.90;9.00;;;6.40;99.90;;;;;;5062278;28;20108;-69
2023/03/06 11:15:16;;;;;;;25.65;8.90;;;6.60;99.90;;;;;;5062334;28;20036;-69
2023/03/06 11:18:06;;;;;;;16.08;7.65;;;6.60;99.90;;;;;;5079698;28;20059;-69
2023/03/06 11:20:53;;;;;;;17.88;8.80;;;6.60;99.90;;;;;;5062079;28;20025;-69
2023/03/06 11:23:39;;;;;;;19.65;7.78;;;6.70;99.90;;;;;;5061882;28;20070;-69
2023/03/06 11:26:27;;;;;;;21.67;8.77;;;6.90;99.90;;;;;;5061969;28;20024;-69
2023/03/06 11:29:34;;;;;;;16.50;7.45;;;6.80;99.90;;;;;;5062018;28;20024;-69
2023/03/06 11:32:22;;;;;;;17.95;8.65;;;6.70;99.90;;;;;;5061950;28;20017;-69
2023/03/06 11:34:59;;;;;;;20.92;9.02;;;6.30;99.90;;;;;;5061878;28;20032;-69
2023/03/06 11:37:38;;;;;;;20.48;7.97;;;6.20;99.90;;;;;;5061848;28;20028;-69
2023/03/06 11:40:10;;;;;;;21.27;8.65;;;6.10;99.90;;;;;;5079353;28;20032;-68
2023/03/06 11:42:40;;;;;;;26.52;10.13;;;6.00;99.90;;;;;;5061623;28;20036;-67
2023/03/06 11:45:36;;;;;;;19.50;8.93;;;5.80;99.90;;;;;;5062463;28;20032;-68
2023/03/06 11:48:13;;;;;;;21.88;9.15;;;5.80;99.90;;;;;;5062008;28;20036;-69
2023/03/06 11:50:45;;;;;;;30.10;12.25;;;5.80;99.90;;;;;;5062187;28;20046;-69
2023/03/06 11:53:32;;;;;;;24.20;9.45;;;5.70;99.90;;;;;;5079121;28;20088;-67
2023/03/06 11:56:09;;;;;;;23.38;10.05;;;5.70;99.90;;;;;;5068851;28;20040;-69
2023/03/06 11:59:12;;;;;;;19.63;9.13;;;5.70;99.90;;;;;;5061368;28;20055;-68
2023/03/06 12:02:07;;;;;;;21.45;9.15;;;5.90;99.90;;;;;;5070666;28;20047;-68
2023/03/06 12:04:58;;;;;;;19.73;8.73;;;6.00;99.90;;;;;;5078728;28;20035;-68
2023/03/06 12:07:33;;;;;;;20.88;9.00;;;5.90;99.90;;;;;;5061307;28;20020;-69
2023/03/06 12:10:22;;;;;;;17.90;8.10;;;5.90;99.90;;;;;;5062103;28;20028;-68
2023/03/06 12:13:03;;;;;;;24.55;7.90;;;6.00;99.90;;;;;;5078982;28;20032;-68
2023/03/06 12:16:18;;;;;;;20.13;8.05;;;5.90;99.90;;;;;;5061095;28;20027;-68
2023/03/06 12:19:10;;;;;;;20.92;8.70;;;5.80;99.90;;;;;;5078786;28;20024;-68
2023/03/06 12:21:46;;;;;;;;;;;5.70;99.90;;;;;;5079388;28;20028;-68
2023/03/06 12:24:39;;;;;;;19.52;8.45;;;5.80;99.90;;;;;;5060792;28;19917;-68
2023/03/06 12:27:21;;;;;;;20.60;8.32;;;5.90;99.90;;;;;;5060909;28;20042;-68
2023/03/06 12:30:00;;;;;;;19.88;8.38;;;6.00;99.90;;;;;;5061874;28;20028;-68
2023/03/06 12:32:51;;;;;;;18.42;7.72;;;6.00;99.90;;;;;;5060787;28;20115;-68
2023/03/06 12:35:25;;;;;;;17.70;8.30;;;5.90;99.90;;;;;;5059877;28;20033;-68
2023/03/06 12:37:57;;;;;;;16.77;7.55;;;5.90;99.90;;;;;;5078285;28;20029;-68
2023/03/06 12:40:49;;;;;;;17.67;7.82;;;6.00;99.90;;;;;;5060726;28;20024;-67
2023/03/06 12:43:33;;;;;;;20.42;8.20;;;6.20;99.90;;;;;;5060519;28;20029;-69
2023/03/06 12:46:17;;;;;;;18.80;8.07;;;6.40;99.90;;;;;;5078159;28;20028;-68
2023/03/06 12:49:08;;;;;;;17.42;8.05;;;6.50;99.90;;;;;;5078094;28;20115;-68
2023/03/06 12:51:34;;;;;;;18.45;8.10;;;6.30;99.90;;;;;;5060711;28;20016;-68
2023/03/06 12:54:02;;;;;;;16.27;7.20;;;6.20;99.90;;;;;;5078017;28;20024;-68
2023/03/06 12:56:29;;;;;;;18.23;8.73;;;6.00;99.90;;;;;;5060120;28;20094;-68
2023/03/06 12:58:57;;;;;;;21.13;9.05;;;5.80;99.90;;;;;;5060190;28;20058;-68